createdAt,value
2023-05-13T00:01:50.219Z,12.40
2023-05-13T00:04:32.219Z,12.40
2023-05-13T00:07:24.241Z,12.30
2023-05-13T00:10:02.369Z,12.40
2023-05-13T00:12:36.652Z,12.20
2023-05-13T00:15:13.529Z,12.30
2023-05-13T00:17:52.074Z,12.20
2023-05-13T00:20:28.940Z,12.20
2023-05-13T00:23:11.603Z,12.20
2023-05-13T00:25:51.610Z,12.10
2023-05-13T00:28:28.167Z,12.20
2023-05-13T00:31:06.996Z,12.10
2023-05-13T00:33:44.438Z,12.10
2023-05-13T00:36:22.869Z,12.00
2023-05-13T00:39:02.759Z,12.00
2023-05-13T00:41:42.440Z,11.90
2023-05-13T00:44:18.544Z,11.90
2023-05-13T00:46:53.601Z,11.90
2023-05-13T00:49:29.415Z,11.80
2023-05-13T00:52:07.828Z,11.80
2023-05-13T00:54:48.500Z,11.80
2023-05-13T00:57:28.185Z,11.80
2023-05-13T01:00:07.436Z,11.70
2023-05-13T01:02:47.246Z,11.70
2023-05-13T01:05:30.426Z,11.70
2023-05-13T01:08:10.534Z,11.60
2023-05-13T01:10:51.997Z,11.60
2023-05-13T01:13:29.315Z,11.60
2023-05-13T01:16:09.217Z,11.60
2023-05-13T01:18:53.229Z,11.60
2023-05-13T01:21:27.082Z,11.50
2023-05-13T01:24:10.058Z,11.50
2023-05-13T01:26:49.041Z,11.40
2023-05-13T01:29:28.223Z,11.50
2023-05-13T01:32:05.398Z,11.40
2023-05-13T01:34:41.748Z,11.30
2023-05-13T01:37:17.965Z,11.20
2023-05-13T01:39:57.004Z,11.20
2023-05-13T01:42:34.830Z,11.10
2023-05-13T01:45:17.033Z,11.10
2023-05-13T01:47:56.749Z,11.10
2023-05-13T01:50:35.330Z,11.10
2023-05-13T01:53:12.541Z,11.10
2023-05-13T01:55:51.497Z,11.10
2023-05-13T01:58:30.412Z,11.00
2023-05-13T02:01:06.271Z,10.90
2023-05-13T02:03:44.643Z,10.90
2023-05-13T02:06:24.800Z,10.80
2023-05-13T02:09:03.070Z,10.80
2023-05-13T02:11:42.695Z,10.80
2023-05-13T02:14:20.990Z,10.80
2023-05-13T02:16:58.041Z,10.80
2023-05-13T02:19:36.985Z,10.70
2023-05-13T02:22:13.328Z,10.60
2023-05-13T02:24:49.331Z,10.50
2023-05-13T02:27:29.785Z,10.50
2023-05-13T02:30:11.380Z,10.50
2023-05-13T02:32:45.041Z,10.50
2023-05-13T02:35:22.727Z,10.40
2023-05-13T02:38:00.227Z,10.30
2023-05-13T02:40:36.234Z,10.30
2023-05-13T02:43:14.559Z,10.30
2023-05-13T02:46:00.473Z,10.30
2023-05-13T02:48:38.172Z,10.20
2023-05-13T02:51:16.926Z,10.20
2023-05-13T02:53:51.872Z,10.10
2023-05-13T02:56:28.087Z,10.10
2023-05-13T02:59:07.313Z,10.10
2023-05-13T03:01:45.094Z,10.10
2023-05-13T03:04:21.173Z,10.00
2023-05-13T03:06:59.796Z,10.00
2023-05-13T03:09:35.477Z,10.00
2023-05-13T03:12:13.796Z,9.90
2023-05-13T03:14:49.270Z,9.90
2023-05-13T03:17:31.248Z,9.90
2023-05-13T03:20:11.363Z,9.90
2023-05-13T03:22:47.588Z,9.90
2023-05-13T03:25:24.676Z,9.90
2023-05-13T03:28:07.749Z,9.90
2023-05-13T03:30:47.663Z,9.90
2023-05-13T03:33:31.809Z,9.90
2023-05-13T03:36:08.853Z,9.90
2023-05-13T03:38:47.422Z,9.90
2023-05-13T03:41:23.208Z,9.90
2023-05-13T03:44:00.895Z,9.90
2023-05-13T03:46:40.629Z,10.00
2023-05-13T03:49:22.751Z,10.00
2023-05-13T03:51:58.350Z,10.10
2023-05-13T03:54:39.540Z,10.10
2023-05-13T03:57:14.228Z,10.30
2023-05-13T03:59:54.793Z,10.40
2023-05-13T04:02:33.598Z,10.50
2023-05-13T04:05:15.070Z,10.70
2023-05-13T04:07:53.059Z,10.80
2023-05-13T04:10:30.872Z,11.00
2023-05-13T04:13:10.134Z,11.20
2023-05-13T04:15:48.322Z,11.30
2023-05-13T04:18:29.971Z,11.50
2023-05-13T04:21:13.401Z,11.60
2023-05-13T04:23:50.529Z,11.80
2023-05-13T04:26:30.738Z,12.00
2023-05-13T04:29:10.603Z,12.20
2023-05-13T04:31:50.319Z,12.30
2023-05-13T04:34:25.457Z,12.50
2023-05-13T04:37:09.221Z,12.70
2023-05-13T04:39:46.784Z,12.90
2023-05-13T04:42:23.645Z,13.00
2023-05-13T04:45:01.162Z,13.20
2023-05-13T04:47:38.484Z,13.40
2023-05-13T04:50:15.913Z,13.60
2023-05-13T04:52:58.536Z,13.80
2023-05-13T04:55:35.777Z,14.10
2023-05-13T04:58:15.380Z,14.20
2023-05-13T05:00:51.075Z,14.40
2023-05-13T05:03:27.317Z,14.50
2023-05-13T05:06:04.862Z,14.70
2023-05-13T05:08:45.446Z,14.90
2023-05-13T05:11:22.001Z,15.10
2023-05-13T05:13:58.971Z,15.20
2023-05-13T05:16:34.252Z,15.30
2023-05-13T05:19:10.550Z,15.40
2023-05-13T05:21:47.802Z,15.50
2023-05-13T05:24:33.154Z,15.60
2023-05-13T05:27:14.084Z,15.70
2023-05-13T05:29:53.199Z,15.90
2023-05-13T05:32:30.987Z,16.10
2023-05-13T05:35:12.453Z,16.20
2023-05-13T05:37:53.936Z,16.40
2023-05-13T05:40:36.099Z,16.60
2023-05-13T05:43:12.117Z,16.60
2023-05-13T05:45:51.554Z,16.60
2023-05-13T05:48:33.782Z,16.90
2023-05-13T05:51:14.436Z,16.90
2023-05-13T05:53:54.507Z,17.00
2023-05-13T05:56:36.802Z,17.10
2023-05-13T05:59:17.020Z,17.30
2023-05-13T06:02:02.000Z,17.30
2023-05-13T06:04:46.233Z,17.40
2023-05-13T06:07:28.277Z,17.50
2023-05-13T06:10:16.143Z,17.70
2023-05-13T06:13:02.262Z,17.80
2023-05-13T06:18:53.664Z,18.00
2023-05-13T06:27:53.518Z,18.30
2023-05-13T06:30:37.165Z,18.40
2023-05-13T06:33:13.155Z,18.70
2023-05-13T06:38:48.731Z,19.00
2023-05-13T06:41:24.330Z,19.20
2023-05-13T06:44:05.448Z,19.30
2023-05-13T06:46:43.675Z,19.30
2023-05-13T06:49:24.686Z,19.40
2023-05-13T06:52:17.113Z,19.50
2023-05-13T06:55:00.297Z,19.50
2023-05-13T06:57:43.249Z,19.50
2023-05-13T07:00:23.495Z,19.70
2023-05-13T07:03:06.770Z,19.70
2023-05-13T07:05:54.584Z,19.70
2023-05-13T07:08:34.195Z,19.80
2023-05-13T07:11:17.766Z,20.10
2023-05-13T07:13:53.768Z,20.20
2023-05-13T07:16:37.260Z,20.30
2023-05-13T07:19:24.722Z,20.50
2023-05-13T07:22:03.658Z,20.50
2023-05-13T07:24:46.792Z,20.50
2023-05-13T07:27:39.690Z,20.60
2023-05-13T07:30:18.818Z,20.60
2023-05-13T07:33:04.441Z,20.60
2023-05-13T07:35:39.271Z,20.40
2023-05-13T07:38:19.551Z,20.40
2023-05-13T07:41:14.014Z,20.20
2023-05-13T07:43:59.791Z,20.20
2023-05-13T07:46:53.472Z,20.30
2023-05-13T07:49:36.460Z,20.30
2023-05-13T07:52:53.045Z,20.20
2023-05-13T07:58:21.050Z,20.40
2023-05-13T08:01:01.890Z,20.70
2023-05-13T08:12:52.998Z,21.70
2023-05-13T08:15:41.422Z,21.70
2023-05-13T08:18:38.880Z,21.80
2023-05-13T08:21:25.533Z,22.10
2023-05-13T08:24:15.484Z,22.10
2023-05-13T08:27:13.456Z,22.00
2023-05-13T08:32:48.700Z,22.30
2023-05-13T08:38:26.621Z,22.60
2023-05-13T08:41:10.578Z,22.90
2023-05-13T08:43:47.215Z,23.20
2023-05-13T08:58:24.172Z,23.70
2023-05-13T09:01:06.032Z,23.70
2023-05-13T09:03:46.251Z,23.70
2023-05-13T09:06:37.190Z,23.70
2023-05-13T09:09:16.079Z,23.70
2023-05-13T09:11:52.159Z,23.60
2023-05-13T09:24:16.749Z,23.10
2023-05-13T09:26:55.588Z,23.00
2023-05-13T09:29:32.892Z,23.10
2023-05-13T09:32:11.970Z,23.00
2023-05-13T09:34:51.947Z,23.10
2023-05-13T09:40:35.261Z,23.40
2023-05-13T09:43:15.881Z,23.60
2023-05-13T09:45:58.764Z,23.40
2023-05-13T09:48:50.404Z,23.40
2023-05-13T09:51:35.605Z,23.50
2023-05-13T09:54:17.660Z,23.60
2023-05-13T09:57:13.256Z,23.70
2023-05-13T09:59:54.768Z,23.40
2023-05-13T10:02:36.102Z,23.30
2023-05-13T10:05:15.946Z,23.40
2023-05-13T10:11:00.197Z,23.40
2023-05-13T10:13:42.420Z,23.40
2023-05-13T10:16:34.299Z,23.50
2023-05-13T11:04:53.149Z,23.20
2023-05-13T11:33:00.681Z,21.40
2023-05-13T11:35:46.511Z,21.40
2023-05-13T11:38:38.715Z,21.40
2023-05-13T11:41:18.406Z,21.50
2023-05-13T11:43:56.221Z,21.60
2023-05-13T11:46:36.386Z,21.60
2023-05-13T11:49:13.612Z,21.50
2023-05-13T11:52:21.967Z,21.50
2023-05-13T11:55:10.752Z,21.50
2023-05-13T11:58:01.955Z,21.50
2023-05-13T12:00:56.185Z,21.50
2023-05-13T12:03:40.904Z,21.40
2023-05-13T12:06:16.774Z,21.40
2023-05-13T12:08:57.331Z,21.20
2023-05-13T12:11:34.076Z,21.10
2023-05-13T12:14:14.366Z,21.20
2023-05-13T12:16:52.616Z,21.20
2023-05-13T12:19:34.706Z,21.20
2023-05-13T12:22:15.541Z,21.20
2023-05-13T12:25:00.460Z,21.20
2023-05-13T12:27:36.342Z,21.10
2023-05-13T12:30:20.518Z,21.00
2023-05-13T12:33:06.569Z,20.90
2023-05-13T12:35:43.330Z,20.70
2023-05-13T12:38:23.209Z,20.60
2023-05-13T12:41:01.533Z,20.50
2023-05-13T12:43:41.488Z,20.40
2023-05-13T12:46:21.704Z,20.40
2023-05-13T12:49:02.894Z,20.40
2023-05-13T12:51:40.604Z,20.30
2023-05-13T12:54:17.637Z,20.20
2023-05-13T12:57:10.152Z,20.10
2023-05-13T12:59:58.537Z,20.10
2023-05-13T13:02:39.915Z,20.20
2023-05-13T13:05:21.023Z,20.20
2023-05-13T13:08:25.007Z,20.40
2023-05-13T13:13:59.112Z,20.40
2023-05-13T13:16:40.327Z,20.30
2023-05-13T13:19:28.236Z,20.20
2023-05-13T13:22:11.010Z,20.10
2023-05-13T13:24:58.277Z,20.10
2023-05-13T13:27:43.372Z,20.00
2023-05-13T13:30:21.571Z,20.00
2023-05-13T13:33:12.855Z,19.90
2023-05-13T13:39:03.018Z,19.90
2023-05-13T15:45:07.860Z,19.30
2023-05-13T17:57:36.925Z,18.40
2023-05-13T18:15:57.431Z,17.50
2023-05-13T19:34:46.386Z,15.10
2023-05-13T19:50:04.618Z,14.80
2023-05-13T19:52:40.947Z,14.70
2023-05-13T19:58:38.370Z,14.70
2023-05-13T20:01:21.695Z,14.50
2023-05-13T20:04:00.202Z,14.50
2023-05-13T20:06:45.364Z,14.50
2023-05-13T20:09:24.081Z,14.30
2023-05-13T20:12:05.647Z,14.30
2023-05-13T20:14:52.154Z,14.20
2023-05-13T20:20:33.250Z,14.10
2023-05-13T20:23:17.001Z,14.10
2023-05-13T20:25:57.349Z,14.10
2023-05-13T20:28:35.103Z,14.10
2023-05-13T20:31:12.295Z,14.00
2023-05-13T20:33:49.891Z,14.00
2023-05-13T20:36:31.885Z,14.00
2023-05-13T20:39:06.992Z,14.00
2023-05-13T20:41:47.254Z,13.90
2023-05-13T20:44:22.638Z,13.90
2023-05-13T20:46:58.192Z,13.80
2023-05-13T20:49:39.285Z,13.80
2023-05-13T20:52:19.935Z,13.80
2023-05-13T20:54:55.572Z,13.80
2023-05-13T20:57:36.960Z,13.80
2023-05-13T21:00:15.078Z,13.70
2023-05-13T21:02:54.465Z,13.70
2023-05-13T21:05:31.606Z,13.70
2023-05-13T21:08:24.027Z,13.70
2023-05-13T21:11:01.905Z,13.60
2023-05-13T21:13:40.557Z,13.50
2023-05-13T21:16:17.286Z,13.50
2023-05-13T21:18:54.045Z,13.50
2023-05-13T21:21:33.964Z,13.40
2023-05-13T21:24:10.212Z,13.40
2023-05-13T21:26:50.106Z,13.40
2023-05-13T21:29:34.823Z,13.30
2023-05-13T21:32:13.592Z,13.30
2023-05-13T21:34:50.052Z,13.30
2023-05-13T21:37:27.115Z,13.20
2023-05-13T21:40:04.308Z,13.20
2023-05-13T21:42:40.633Z,13.20
2023-05-13T21:45:21.365Z,13.10
2023-05-13T21:47:57.270Z,13.10
2023-05-13T21:50:33.071Z,13.00
2023-05-13T21:53:10.451Z,13.00
2023-05-13T21:55:46.023Z,12.80
2023-05-13T21:58:23.596Z,12.80
2023-05-13T22:01:04.585Z,12.70
2023-05-13T22:03:41.166Z,12.60
2023-05-13T22:06:18.896Z,12.60
2023-05-13T22:08:57.957Z,12.50
2023-05-13T22:11:33.857Z,12.40
2023-05-13T22:14:12.578Z,12.30
2023-05-13T22:17:07.200Z,12.20
2023-05-13T22:19:44.191Z,12.20
2023-05-13T22:22:24.251Z,12.10
2023-05-13T22:25:00.791Z,12.10
2023-05-13T22:27:39.302Z,12.10
2023-05-13T22:30:17.272Z,12.10
2023-05-13T22:32:59.504Z,11.90
2023-05-13T22:35:37.093Z,12.00
2023-05-13T22:38:13.982Z,11.90
2023-05-13T22:40:53.463Z,11.90
2023-05-13T22:43:29.798Z,11.90
2023-05-13T22:46:08.553Z,11.90
2023-05-13T22:48:42.705Z,11.90
2023-05-13T22:51:21.486Z,11.80
2023-05-13T22:53:56.954Z,11.80
2023-05-13T22:59:29.746Z,11.70
2023-05-13T23:02:07.716Z,11.70
2023-05-13T23:04:44.276Z,11.70
2023-05-13T23:16:01.611Z,11.50
2023-05-13T23:18:37.852Z,11.50
